createdAt,value
2018-02-07T00:00:49.839Z,100501
2018-02-07T00:03:18.086Z,100499
2018-02-07T00:05:46.311Z,100503
2018-02-07T00:08:14.617Z,100504
2018-02-07T00:10:43.675Z,100499
2018-02-07T00:13:11.908Z,100498
2018-02-07T00:15:40.206Z,100507
2018-02-07T00:18:08.689Z,100506
2018-02-07T00:20:37.696Z,100497
2018-02-07T00:23:05.943Z,100496
2018-02-07T00:25:34.240Z,100498
2018-02-07T00:28:02.490Z,100498
2018-02-07T00:30:30.741Z,100490
2018-02-07T00:32:59.783Z,100498
2018-02-07T00:35:28.014Z,100491
2018-02-07T00:37:56.280Z,100496
2018-02-07T00:40:25.347Z,100498
2018-02-07T00:42:53.570Z,100490
2018-02-07T00:45:21.884Z,100496
2018-02-07T00:47:50.144Z,100496
2018-02-07T00:50:18.391Z,100493
2018-02-07T00:52:46.834Z,100494
2018-02-07T00:55:15.095Z,100494
2018-02-07T00:57:43.326Z,100498
2018-02-07T01:00:14.380Z,100505
2018-02-07T01:02:42.640Z,100502
2018-02-07T01:05:10.872Z,100496
2018-02-07T01:07:39.182Z,100503
2018-02-07T01:10:08.173Z,100498
2018-02-07T01:12:37.164Z,100496
2018-02-07T01:15:06.218Z,100507
2018-02-07T01:17:34.437Z,100511
2018-02-07T01:20:03.442Z,100509
2018-02-07T01:22:31.723Z,100507
2018-02-07T01:24:59.966Z,100512
2018-02-07T01:27:29.017Z,100504
2018-02-07T01:29:57.245Z,100498
2018-02-07T01:32:26.252Z,100508
2018-02-07T01:34:54.618Z,100496
2018-02-07T01:37:22.869Z,100488
2018-02-07T01:39:51.102Z,100488
2018-02-07T01:42:19.493Z,100486
2018-02-07T01:44:47.738Z,100482
2018-02-07T01:47:15.990Z,100477
2018-02-07T01:49:45.171Z,100493
2018-02-07T01:52:13.418Z,100485
2018-02-07T01:54:41.654Z,100474
2018-02-07T01:57:09.945Z,100476
2018-02-07T01:59:38.180Z,100472
2018-02-07T02:02:06.416Z,100476
2018-02-07T02:04:34.881Z,100475
2018-02-07T02:07:03.125Z,100480
2018-02-07T02:09:31.348Z,100476
2018-02-07T02:11:59.650Z,100476
2018-02-07T02:14:27.891Z,100466
2018-02-07T02:16:56.129Z,100476
2018-02-07T02:19:25.289Z,100476
2018-02-07T02:21:53.506Z,100467
2018-02-07T02:24:21.747Z,100482
2018-02-07T02:26:50.003Z,100465
2018-02-07T02:29:18.242Z,100453
2018-02-07T02:31:46.505Z,100470
2018-02-07T02:34:14.762Z,100464
2018-02-07T02:36:43.817Z,100461
2018-02-07T02:39:12.084Z,100447
2018-02-07T02:41:40.309Z,100445
2018-02-07T02:44:09.410Z,100441
2018-02-07T02:46:37.642Z,100445
2018-02-07T02:49:05.877Z,100443
2018-02-07T02:51:34.137Z,100434
2018-02-07T02:54:02.380Z,100441
2018-02-07T02:56:30.654Z,100438
2018-02-07T02:58:58.880Z,100436
2018-02-07T03:01:27.305Z,100423
2018-02-07T03:03:55.559Z,100428
2018-02-07T03:06:23.792Z,100442
2018-02-07T03:08:52.065Z,100435
2018-02-07T03:11:21.124Z,100435
2018-02-07T03:13:49.364Z,100434
2018-02-07T03:16:17.602Z,100436
2018-02-07T03:18:46.611Z,100438
2018-02-07T03:21:14.893Z,100438
2018-02-07T03:23:43.135Z,100439
2018-02-07T03:26:11.363Z,100447
2018-02-07T03:28:39.644Z,100435
2018-02-07T03:31:07.884Z,100440
2018-02-07T03:33:36.130Z,100442
2018-02-07T03:36:04.381Z,100439
2018-02-07T03:38:32.600Z,100449
2018-02-07T03:41:01.827Z,100438
2018-02-07T03:43:30.068Z,100443
2018-02-07T03:45:59.078Z,100433
2018-02-07T03:48:28.041Z,100443
2018-02-07T03:50:56.269Z,100432
2018-02-07T03:53:25.159Z,100454
2018-02-07T03:55:53.435Z,100457
2018-02-07T03:58:21.676Z,100458
2018-02-07T04:00:50.004Z,100445
2018-02-07T04:03:18.224Z,100454
2018-02-07T04:05:46.458Z,100459
2018-02-07T04:08:14.768Z,100456
2018-02-07T04:10:43.776Z,100452
2018-02-07T04:13:12.001Z,100463
2018-02-07T04:15:40.267Z,100471
2018-02-07T04:18:08.503Z,100460
2018-02-07T04:20:36.765Z,100449
2018-02-07T04:23:05.760Z,100454
2018-02-07T04:25:34.799Z,100447
2018-02-07T04:28:03.037Z,100447
2018-02-07T04:30:31.378Z,100445
2018-02-07T04:32:59.630Z,100442
2018-02-07T04:35:27.878Z,100438
2018-02-07T04:37:56.379Z,100435
2018-02-07T04:40:24.620Z,100438
2018-02-07T04:42:53.622Z,100438
2018-02-07T04:45:21.927Z,100433
2018-02-07T04:47:50.158Z,100443
2018-02-07T04:50:19.159Z,100438
2018-02-07T04:52:48.221Z,100443
2018-02-07T04:55:16.474Z,100443
2018-02-07T04:57:44.699Z,100427
2018-02-07T05:00:13.727Z,100434
2018-02-07T05:02:41.988Z,100429
2018-02-07T05:05:10.266Z,100427
2018-02-07T05:07:38.614Z,100426
2018-02-07T05:10:07.609Z,100426
2018-02-07T05:12:36.647Z,100435
2018-02-07T05:15:04.944Z,100434
2018-02-07T05:17:33.172Z,100432
2018-02-07T05:20:01.445Z,100433
2018-02-07T05:22:29.692Z,100416
2018-02-07T05:24:57.993Z,100427
2018-02-07T05:27:26.225Z,100435
2018-02-07T05:29:54.462Z,100417
2018-02-07T05:32:22.783Z,100426
2018-02-07T05:34:51.029Z,100413
2018-02-07T05:37:19.267Z,100421
2018-02-07T05:39:47.568Z,100418
2018-02-07T05:42:15.830Z,100426
2018-02-07T05:44:44.075Z,100418
2018-02-07T05:47:13.141Z,100414
2018-02-07T05:49:41.367Z,100418
2018-02-07T05:52:09.593Z,100413
2018-02-07T05:54:37.902Z,100417
2018-02-07T05:57:06.896Z,100411
2018-02-07T05:59:35.179Z,100419
2018-02-07T06:02:04.200Z,100416
2018-02-07T06:04:32.514Z,100423
2018-02-07T06:07:00.737Z,100418
2018-02-07T06:09:28.981Z,100415
2018-02-07T06:11:58.089Z,100409
2018-02-07T06:14:26.313Z,100407
2018-02-07T06:16:54.552Z,100419
2018-02-07T06:19:23.055Z,100413
2018-02-07T06:21:51.289Z,100407
2018-02-07T06:24:19.511Z,100405
2018-02-07T06:26:47.907Z,100405
2018-02-07T06:29:16.137Z,100410
2018-02-07T06:31:44.368Z,100413
2018-02-07T06:34:12.660Z,100412
2018-02-07T06:36:41.654Z,100407
2018-02-07T06:39:10.649Z,100407
2018-02-07T06:41:39.694Z,100414
2018-02-07T06:44:07.935Z,100416
2018-02-07T06:46:36.198Z,100422
2018-02-07T06:49:05.250Z,100419
2018-02-07T06:51:33.562Z,100427
2018-02-07T06:54:02.594Z,100436
2018-02-07T06:56:30.942Z,100442
2018-02-07T06:58:59.966Z,100432
2018-02-07T07:01:28.226Z,100439
2018-02-07T07:03:56.564Z,100436
2018-02-07T07:06:24.852Z,100437
2018-02-07T07:08:53.171Z,100440
2018-02-07T07:11:21.443Z,100437
2018-02-07T07:13:49.691Z,100444
2018-02-07T07:16:18.713Z,100428
2018-02-07T07:18:46.994Z,100427
2018-02-07T07:21:15.209Z,100431
2018-02-07T07:23:43.519Z,100432
2018-02-07T07:26:12.524Z,100439
2018-02-07T07:28:40.774Z,100425
2018-02-07T07:31:09.844Z,100426
2018-02-07T07:33:38.130Z,100421
2018-02-07T07:36:06.380Z,100423
2018-02-07T07:38:34.733Z,100429
2018-02-07T07:41:02.971Z,100432
2018-02-07T07:43:31.975Z,100430
2018-02-07T07:46:00.265Z,100436
2018-02-07T07:48:28.600Z,100438
2018-02-07T07:50:56.854Z,100425
2018-02-07T07:53:25.861Z,100428
2018-02-07T07:55:54.654Z,100428
2018-02-07T07:58:22.911Z,100434
2018-02-07T08:00:51.949Z,100442
2018-02-07T08:03:21.028Z,100448
2018-02-07T08:05:50.112Z,100449
2018-02-07T08:08:18.366Z,100439
2018-02-07T08:10:46.673Z,100442
2018-02-07T08:13:15.002Z,100441
2018-02-07T08:15:43.272Z,100450
2018-02-07T08:18:11.678Z,100444
2018-02-07T08:20:39.956Z,100454
2018-02-07T08:23:08.206Z,100451
2018-02-07T08:25:36.536Z,100451
2018-02-07T08:28:04.789Z,100447
2018-02-07T08:30:33.031Z,100454
2018-02-07T08:33:01.474Z,100448
2018-02-07T08:35:29.790Z,100448
2018-02-07T08:37:58.804Z,100443
2018-02-07T08:40:27.164Z,100452
2018-02-07T08:42:55.402Z,100454
2018-02-07T08:45:24.408Z,100445
2018-02-07T08:47:52.678Z,100456
2018-02-07T08:50:20.980Z,100460
2018-02-07T08:52:49.250Z,100457
2018-02-07T08:55:17.528Z,100461
2018-02-07T08:57:45.832Z,100463
2018-02-07T09:00:14.091Z,100470
2018-02-07T09:02:42.340Z,100463
2018-02-07T09:05:10.674Z,100472
2018-02-07T09:07:38.931Z,100488
2018-02-07T09:10:07.167Z,100480
2018-02-07T09:12:35.504Z,100474
2018-02-07T09:15:03.728Z,100481
2018-02-07T09:17:32.018Z,100484
2018-02-07T09:20:00.320Z,100485
2018-02-07T09:22:28.576Z,100484
2018-02-07T09:24:56.815Z,100482
2018-02-07T09:27:25.107Z,100476
2018-02-07T09:29:53.461Z,100473
2018-02-07T09:32:21.706Z,100473
2018-02-07T09:34:49.968Z,100473
2018-02-07T09:37:18.264Z,100472
2018-02-07T09:39:46.544Z,100463
2018-02-07T09:42:15.640Z,100472
2018-02-07T09:44:44.737Z,100471
2018-02-07T09:47:13.010Z,100471
2018-02-07T09:49:41.297Z,100480
2018-02-07T09:52:10.355Z,100475
2018-02-07T09:54:38.698Z,100473
2018-02-07T09:57:06.946Z,100475
2018-02-07T09:59:35.991Z,100476
2018-02-07T10:02:04.330Z,100470
2018-02-07T10:04:32.746Z,100461
2018-02-07T10:07:01.134Z,100458
2018-02-07T10:09:29.455Z,100455
2018-02-07T10:11:58.484Z,100445
2018-02-07T10:14:26.745Z,100456
2018-02-07T10:16:55.035Z,100451
2018-02-07T10:19:23.256Z,100455
2018-02-07T10:21:51.501Z,100445
2018-02-07T10:24:19.805Z,100446
2018-02-07T10:26:48.132Z,100449
2018-02-07T10:29:16.452Z,100454
2018-02-07T10:31:44.986Z,100459
2018-02-07T10:34:13.652Z,100452
2018-02-07T10:36:41.924Z,100454
2018-02-07T10:39:10.973Z,100454
2018-02-07T10:41:39.218Z,100452
2018-02-07T10:44:07.490Z,100444
2018-02-07T10:46:35.787Z,100447
2018-02-07T10:49:04.048Z,100444
2018-02-07T10:51:32.272Z,100444
2018-02-07T10:54:00.548Z,100440
2018-02-07T10:56:29.638Z,100434
2018-02-07T10:58:57.937Z,100426
2018-02-07T11:01:26.965Z,100431
2018-02-07T11:03:55.236Z,100423
2018-02-07T11:06:23.554Z,100429
2018-02-07T11:08:51.912Z,100428
2018-02-07T11:11:21.055Z,100420
2018-02-07T11:13:50.173Z,100430
2018-02-07T11:16:18.468Z,100425
2018-02-07T11:18:46.729Z,100421
2018-02-07T11:21:15.045Z,100423
2018-02-07T11:23:43.342Z,100420
2018-02-07T11:26:11.688Z,100428
2018-02-07T11:28:40.103Z,100420
2018-02-07T11:31:09.186Z,100422
2018-02-07T11:33:37.895Z,100411
2018-02-07T11:36:07.204Z,100412
2018-02-07T11:38:35.614Z,100406
2018-02-07T11:41:03.942Z,100412
2018-02-07T11:43:32.296Z,100403
2018-02-07T11:46:00.702Z,100402
2018-02-07T11:48:29.882Z,100401
2018-02-07T11:50:58.293Z,100392
2018-02-07T11:53:26.538Z,100397
2018-02-07T11:55:54.786Z,100403
2018-02-07T11:58:23.073Z,100404
2018-02-07T12:00:51.382Z,100404
2018-02-07T12:03:19.755Z,100405
2018-02-07T12:05:48.844Z,100393
2018-02-07T12:08:17.943Z,100396
2018-02-07T12:10:46.231Z,100389
2018-02-07T12:13:14.515Z,100389
2018-02-07T12:15:42.817Z,100392
2018-02-07T12:18:11.191Z,100385
2018-02-07T12:20:39.500Z,100379
2018-02-07T12:23:07.777Z,100387
2018-02-07T12:25:36.135Z,100385
2018-02-07T12:28:04.359Z,100389
2018-02-07T12:30:33.381Z,100389
2018-02-07T12:33:01.642Z,100382
2018-02-07T12:35:29.878Z,100384
2018-02-07T12:37:58.162Z,100373
2018-02-07T12:40:26.590Z,100379
2018-02-07T12:42:54.868Z,100368
2018-02-07T12:45:23.189Z,100368
2018-02-07T12:47:51.538Z,100371
2018-02-07T12:50:19.796Z,100369
2018-02-07T12:52:48.095Z,100372
2018-02-07T12:55:16.449Z,100375
2018-02-07T12:57:44.725Z,100372
2018-02-07T13:00:13.050Z,100370
2018-02-07T13:02:41.505Z,100363
2018-02-07T13:05:10.792Z,100360
2018-02-07T13:07:39.100Z,100364
2018-02-07T13:10:07.389Z,100359
2018-02-07T13:12:36.460Z,100368
2018-02-07T13:15:04.758Z,100377
2018-02-07T13:17:33.819Z,100365
2018-02-07T13:20:02.120Z,100363
2018-02-07T13:22:30.431Z,100365
2018-02-07T13:24:59.571Z,100359
2018-02-07T13:27:27.883Z,100360
2018-02-07T13:29:57.112Z,100354
2018-02-07T13:32:25.386Z,100350
2018-02-07T13:34:53.699Z,100346
2018-02-07T13:37:22.010Z,100346
2018-02-07T13:39:51.130Z,100337
2018-02-07T13:42:19.453Z,100344
2018-02-07T13:44:47.704Z,100344
2018-02-07T13:47:16.103Z,100339
2018-02-07T13:49:44.386Z,100339
2018-02-07T13:52:12.629Z,100334
2018-02-07T13:54:40.937Z,100333
2018-02-07T13:57:09.231Z,100334
2018-02-07T13:59:37.495Z,100333
2018-02-07T14:02:05.740Z,100330
2018-02-07T14:04:34.043Z,100325
2018-02-07T14:07:02.286Z,100325
2018-02-07T14:09:30.544Z,100335
2018-02-07T14:11:58.923Z,100321
2018-02-07T14:14:27.177Z,100325
2018-02-07T14:16:56.186Z,100318
2018-02-07T14:19:25.354Z,100315
2018-02-07T14:21:53.616Z,100318
2018-02-07T14:24:21.889Z,100317
2018-02-07T14:26:50.232Z,100312
2018-02-07T14:29:18.560Z,100312
2018-02-07T14:31:46.781Z,100314
2018-02-07T14:34:15.061Z,100312
2018-02-07T14:36:43.325Z,100304
2018-02-07T14:39:11.618Z,100312
2018-02-07T14:41:39.970Z,100315
2018-02-07T14:44:08.257Z,100313
2018-02-07T14:46:36.550Z,100320
2018-02-07T14:49:04.799Z,100325
2018-02-07T14:51:33.145Z,100335
2018-02-07T14:54:02.218Z,100331
2018-02-07T14:56:30.630Z,100323
2018-02-07T14:58:58.941Z,100331
2018-02-07T15:01:27.240Z,100322
2018-02-07T15:03:55.554Z,100333
2018-02-07T15:06:23.825Z,100335
2018-02-07T15:08:52.160Z,100334
2018-02-07T15:11:20.454Z,100335
2018-02-07T15:13:48.705Z,100335
2018-02-07T15:16:17.053Z,100334
2018-02-07T15:18:45.332Z,100332
2018-02-07T15:21:13.639Z,100335
2018-02-07T15:23:41.948Z,100332
2018-02-07T15:26:10.195Z,100333
2018-02-07T15:28:38.524Z,100341
2018-02-07T15:31:07.603Z,100339
2018-02-07T15:33:35.862Z,100340
2018-02-07T15:36:04.105Z,100342
2018-02-07T15:38:32.459Z,100340
2018-02-07T15:41:00.713Z,100338
2018-02-07T15:43:29.882Z,100342
2018-02-07T15:45:58.178Z,100350
2018-02-07T15:48:26.457Z,100349
2018-02-07T15:50:54.709Z,100349
2018-02-07T15:53:23.105Z,100355
2018-02-07T15:55:51.336Z,100351
2018-02-07T15:58:19.614Z,100357
2018-02-07T16:00:47.946Z,100352
2018-02-07T16:03:16.970Z,100356
2018-02-07T16:05:45.320Z,100357
2018-02-07T16:08:14.337Z,100363
2018-02-07T16:10:42.630Z,100364
2018-02-07T16:13:11.037Z,100360
2018-02-07T16:15:39.288Z,100350
2018-02-07T16:18:07.517Z,100360
2018-02-07T16:20:35.842Z,100359
2018-02-07T16:23:04.079Z,100357
2018-02-07T16:25:32.335Z,100358
2018-02-07T16:28:00.640Z,100358
2018-02-07T16:30:28.900Z,100358
2018-02-07T16:32:57.915Z,100361
2018-02-07T16:35:26.372Z,100362
2018-02-07T16:37:55.391Z,100355
2018-02-07T16:40:23.635Z,100358
2018-02-07T16:42:51.964Z,100357
2018-02-07T16:45:20.220Z,100357
2018-02-07T16:47:48.484Z,100358
2018-02-07T16:50:16.835Z,100353
2018-02-07T16:52:45.126Z,100361
2018-02-07T16:55:14.229Z,100370
2018-02-07T16:57:42.529Z,100364
2018-02-07T17:00:10.782Z,100364
2018-02-07T17:02:39.059Z,100371
2018-02-07T17:05:08.104Z,100373
2018-02-07T17:07:36.452Z,100374
2018-02-07T17:10:04.738Z,100373
2018-02-07T17:12:33.007Z,100374
2018-02-07T17:15:01.261Z,100382
2018-02-07T17:17:29.484Z,100386
2018-02-07T17:19:57.790Z,100384
2018-02-07T17:22:26.886Z,100382
2018-02-07T17:24:55.155Z,100387
2018-02-07T17:27:24.275Z,100381
2018-02-07T17:29:52.590Z,100385
2018-02-07T17:32:20.865Z,100388
2018-02-07T17:34:49.105Z,100395
2018-02-07T17:37:17.463Z,100403
2018-02-07T17:39:45.727Z,100400
2018-02-07T17:42:13.975Z,100402
2018-02-07T17:44:42.415Z,100415
2018-02-07T17:47:10.659Z,100410
2018-02-07T17:49:38.920Z,100409
2018-02-07T17:52:07.250Z,100408
2018-02-07T17:54:35.618Z,100401
2018-02-07T17:57:03.956Z,100400
2018-02-07T17:59:32.239Z,100400
2018-02-07T18:02:00.649Z,100416
2018-02-07T18:04:29.693Z,100415
2018-02-07T18:06:57.961Z,100422
2018-02-07T18:09:26.306Z,100423
2018-02-07T18:11:54.549Z,100411
2018-02-07T18:14:22.852Z,100420
2018-02-07T18:16:51.797Z,100412
2018-02-07T18:19:20.048Z,100413
2018-02-07T18:21:48.360Z,100414
2018-02-07T18:24:16.778Z,100416
2018-02-07T18:26:45.058Z,100417
2018-02-07T18:29:13.379Z,100418
2018-02-07T18:31:41.615Z,100410
2018-02-07T18:34:09.864Z,100419
2018-02-07T18:36:39.029Z,100416
2018-02-07T18:39:08.111Z,100410
2018-02-07T18:41:36.375Z,100408
2018-02-07T18:44:04.695Z,100415
2018-02-07T18:46:33.467Z,100409
2018-02-07T18:49:02.538Z,100416
2018-02-07T18:51:30.881Z,100411
2018-02-07T18:53:59.167Z,100411
2018-02-07T18:56:27.447Z,100407
2018-02-07T18:58:55.840Z,100408
2018-02-07T19:01:24.161Z,100411
2018-02-07T19:03:53.230Z,100400
2018-02-07T19:06:21.578Z,100410
2018-02-07T19:08:49.885Z,100405
2018-02-07T19:11:18.176Z,100410
2018-02-07T19:13:46.482Z,100415
2018-02-07T19:16:14.752Z,100418
2018-02-07T19:18:43.809Z,100409
2018-02-07T19:21:12.070Z,100409
2018-02-07T19:23:40.405Z,100413
2018-02-07T19:26:09.703Z,100410
2018-02-07T19:28:37.953Z,100418
2018-02-07T19:31:06.290Z,100408
2018-02-07T19:33:34.603Z,100411
2018-02-07T19:36:02.928Z,100406
2018-02-07T19:38:31.227Z,100405
2018-02-07T19:40:59.527Z,100412
2018-02-07T19:43:27.910Z,100403
2018-02-07T19:45:56.155Z,100399
2018-02-07T19:48:24.432Z,100408
2018-02-07T19:50:52.734Z,100408
2018-02-07T19:53:20.982Z,100407
2018-02-07T19:55:49.300Z,100418
2018-02-07T19:58:18.310Z,100414
2018-02-07T20:00:47.364Z,100420
2018-02-07T20:03:15.777Z,100411
2018-02-07T20:05:44.102Z,100415
2018-02-07T20:08:12.730Z,100418
2018-02-07T20:10:41.986Z,100414
2018-02-07T20:13:10.357Z,100413
2018-02-07T20:15:38.643Z,100410
2018-02-07T20:18:07.019Z,100411
2018-02-07T20:20:35.468Z,100414
2018-02-07T20:23:03.738Z,100427
2018-02-07T20:25:32.068Z,100413
2018-02-07T20:28:00.345Z,100419
2018-02-07T20:30:28.615Z,100411
2018-02-07T20:32:56.936Z,100410
2018-02-07T20:35:25.575Z,100404
2018-02-07T20:37:53.935Z,100406
2018-02-07T20:40:22.253Z,100407
2018-02-07T20:42:50.546Z,100415
2018-02-07T20:45:19.961Z,100405
2018-02-07T20:47:48.377Z,100410
2018-02-07T20:50:16.631Z,100411
2018-02-07T20:52:44.980Z,100400
2018-02-07T20:55:14.016Z,100411
2018-02-07T20:57:42.278Z,100414
2018-02-07T21:00:10.507Z,100418
2018-02-07T21:02:38.912Z,100408
2018-02-07T21:05:07.212Z,100410
2018-02-07T21:07:35.456Z,100410
2018-02-07T21:10:03.788Z,100417
2018-02-07T21:12:32.019Z,100421
2018-02-07T21:15:00.382Z,100422
2018-02-07T21:17:29.597Z,100430
2018-02-07T21:19:57.915Z,100430
2018-02-07T21:22:26.142Z,100425
2018-02-07T21:24:54.431Z,100425
2018-02-07T21:27:22.694Z,100422
2018-02-07T21:29:51.003Z,100422
2018-02-07T21:32:19.249Z,100422
2018-02-07T21:34:47.566Z,100443
2018-02-07T21:37:15.898Z,100434
2018-02-07T21:39:44.981Z,100433
2018-02-07T21:42:13.272Z,100434
2018-02-07T21:44:41.614Z,100424
2018-02-07T21:47:09.921Z,100431
2018-02-07T21:49:38.578Z,100431
2018-02-07T21:52:06.872Z,100434
2018-02-07T21:54:35.928Z,100434
2018-02-07T21:57:04.357Z,100418
2018-02-07T21:59:32.650Z,100429
2018-02-07T22:02:00.986Z,100440
2018-02-07T22:04:30.106Z,100441
2018-02-07T22:06:58.361Z,100442
2018-02-07T22:09:27.425Z,100439
2018-02-07T22:11:55.747Z,100436
2018-02-07T22:14:24.944Z,100437
2018-02-07T22:16:54.035Z,100436
2018-02-07T22:19:23.148Z,100436
2018-02-07T22:21:51.419Z,100443
2018-02-07T22:24:19.734Z,100446
2018-02-07T22:26:48.065Z,100455
2018-02-07T22:29:16.329Z,100436
2018-02-07T22:31:45.346Z,100447
2018-02-07T22:34:13.597Z,100434
2018-02-07T22:36:42.636Z,100446
2018-02-07T22:39:10.944Z,100434
2018-02-07T22:41:39.194Z,100449
2018-02-07T22:44:07.450Z,100449
2018-02-07T22:46:35.870Z,100447
2018-02-07T22:49:04.127Z,100444
2018-02-07T22:51:32.384Z,100442
2018-02-07T22:54:00.697Z,100452
2018-02-07T22:56:29.013Z,100453
2018-02-07T22:58:57.284Z,100452
2018-02-07T23:01:26.308Z,100461
2018-02-07T23:03:54.585Z,100462
2018-02-07T23:06:23.078Z,100455
2018-02-07T23:08:51.362Z,100449
2018-02-07T23:11:19.613Z,100458
2018-02-07T23:13:47.951Z,100461
2018-02-07T23:16:16.990Z,100469
2018-02-07T23:18:45.259Z,100455
2018-02-07T23:21:13.523Z,100458
2018-02-07T23:23:41.861Z,100462
2018-02-07T23:26:10.085Z,100453
2018-02-07T23:28:38.336Z,100456
2018-02-07T23:31:07.468Z,100455
2018-02-07T23:33:35.847Z,100447
2018-02-07T23:36:04.120Z,100451
2018-02-07T23:38:32.495Z,100452
2018-02-07T23:41:00.799Z,100461
2018-02-07T23:43:29.026Z,100461
2018-02-07T23:45:57.371Z,100457
2018-02-07T23:48:25.652Z,100455
2018-02-07T23:50:53.894Z,100438
2018-02-07T23:53:22.220Z,100453
2018-02-07T23:55:51.220Z,100452
2018-02-07T23:58:20.367Z,100464
